KCWA

Central Wisconsin Airport

Mosinee, Wisconsin, USA
METAR KCWA 172055Z 00000KT 3SM BR OVC004 M03/M03 A3000
Observed Flight Rules
Dec-17 @ 20:55 UTC (19 minutes ago) Instrument Flight Rules
Wind Visibility Clouds Conditions
Calm 3 miles
  • Overcast at 400' AGL
  • Mist
Temperatures Readings
Current -3°C / 27°F
Dewpoint -3°C / 27°F
Humidity 100%
Altimeter 30" Hg
Pressure 1016 hPa
Elevation 389
METAR KCWA 172055Z 00000KT 3SM BR OVC004 M03/M03 A3000
Observed Flight Rules
Dec-17 @ 20:55 UTC
(19 minutes ago)
LIFR
Wind Visibility
Calm 3 miles
Clouds
  • Overcast at 400' AGL
Conditions
  • Mist
Temperature Dewpoint
-3°C / 27°F -3°C / 27°F
Humidity Altimeter Pressure
100% 30" Hg 1016 hPa